Time;durP1;ratioP1;P1;durP2;ratioP2;P2;SDS_P1;SDS_P2;PMS_P1;PMS_P2;Temp;Humidity;BMP_temperature;BMP_pressure;BME280_temperature;BME280_humidity;BME280_pressure;Samples;Min_cycle;Max_cycle;Signal;HPM_P1;HPM_P2
2023/12/16 06:56:51;;;;;;;5.60;2.97;;;;;;;;;;10665004;22;20358;-84
2023/12/16 07:01:52;;;;;;;6.43;2.20;;;;;;;;;;10654487;27;20033;-84
2023/12/16 07:06:53;;;;;;;5.72;2.10;;;;;;;;;;10673020;27;20028;-84
2023/12/16 07:11:54;;;;;;;7.75;3.20;;;;;;;;;;10655619;27;20027;-84
2023/12/16 07:16:56;;;;;;;4.68;2.03;;;;;;;;;;10654737;27;20063;-83
2023/12/16 07:22:00;;;;;;;5.50;2.28;;;;;;;;;;10653155;27;20443;-82
2023/12/16 07:27:01;;;;;;;9.35;2.65;;;;;;;;;;10652295;27;20049;-83
2023/12/16 07:32:03;;;;;;;8.50;2.58;;;;;;;;;;10652573;27;20125;-83
2023/12/16 07:37:04;;;;;;;7.20;3.00;;;;;;;;;;10653041;27;20023;-83
2023/12/16 07:42:05;;;;;;;6.68;2.38;;;;;;;;;;10653273;27;20050;-83
2023/12/16 07:47:06;;;;;;;;;;;;;;;;;;10651952;27;20080;-82
2023/12/16 07:52:07;;;;;;;11.13;3.95;;;;;;;;;;10647124;27;19953;-83
2023/12/16 07:57:08;;;;;;;;;;;;;;;;;;10637959;27;20031;-83
2023/12/16 08:02:10;;;;;;;7.72;2.55;;;;;;;;;;10632431;27;19904;-79
2023/12/16 08:07:11;;;;;;;7.93;2.78;;;;;;;;;;10619454;27;20027;-81
2023/12/16 08:12:12;;;;;;;;;;;;;;;;;;10619021;27;20028;-82
2023/12/16 08:17:13;;;;;;;9.00;3.20;;;;;;;;;;10618481;27;19909;-80
2023/12/16 08:22:14;;;;;;;;;;;;;;;;;;10641382;27;20033;-82
2023/12/16 08:27:15;;;;;;;7.22;2.90;;;;;;;;;;10624159;27;19926;-83
2023/12/16 08:32:17;;;;;;;7.53;2.92;;;;;;;;;;10623759;27;20027;-83
2023/12/16 08:37:18;;;;;;;9.40;3.03;;;;;;;;;;10618432;27;20122;-83
2023/12/16 08:42:19;;;;;;;;;;;;;;;;;;10621345;27;20132;-83
2023/12/16 08:47:20;;;;;;;6.90;3.22;;;;;;;;;;10624081;27;19904;-83
2023/12/16 08:52:21;;;;;;;7.57;3.50;;;;;;;;;;10622429;27;20031;-84
2023/12/16 08:57:22;;;;;;;;;;;;;;;;;;10622379;27;20058;-83
2023/12/16 09:02:26;;;;;;;11.07;3.45;;;;;;;;;;10623659;27;20304;-85
2023/12/16 09:07:27;;;;;;;10.82;4.45;;;;;;;;;;10622617;27;20038;-84
2023/12/16 09:12:29;;;;;;;12.05;4.15;;;;;;;;;;10623944;27;20485;-83
2023/12/16 09:17:30;;;;;;;14.20;5.78;;;;;;;;;;10605312;27;20123;-83
2023/12/16 09:22:31;;;;;;;;;;;;;;;;;;10621042;27;20034;-83
2023/12/16 09:27:33;;;;;;;6.05;3.30;;;;;;;;;;10619374;27;19910;-84
2023/12/16 09:32:38;;;;;;;7.70;3.10;;;;;;;;;;10637084;27;20027;-83
2023/12/16 09:37:39;;;;;;;7.75;3.05;;;;;;;;;;10621113;27;20039;-81
2023/12/16 09:42:45;;;;;;;7.05;3.20;;;;;;;;;;10617191;27;20037;-81
2023/12/16 09:47:47;;;;;;;8.40;3.15;;;;;;;;;;10614723;27;20055;-82
2023/12/16 09:52:48;;;;;;;7.07;2.80;;;;;;;;;;10613253;27;20023;-82
2023/12/16 09:57:53;;;;;;;10.50;3.33;;;;;;;;;;10614452;27;20114;-83
2023/12/16 10:02:56;;;;;;;7.57;3.70;;;;;;;;;;10605637;27;20027;-82
2023/12/16 10:07:58;;;;;;;8.75;3.30;;;;;;;;;;10617086;27;20030;-82
2023/12/16 10:13:03;;;;;;;11.73;3.50;;;;;;;;;;10618585;27;20016;-82
2023/12/16 10:18:04;;;;;;;9.23;3.20;;;;;;;;;;10636316;27;20100;-82
2023/12/16 10:23:08;;;;;;;8.10;3.03;;;;;;;;;;10618794;27;20467;-80
2023/12/16 10:28:10;;;;;;;6.88;2.95;;;;;;;;;;10619703;27;20030;-82
2023/12/16 10:33:13;;;;;;;7.82;2.85;;;;;;;;;;10621714;27;20034;-82
2023/12/16 10:38:14;;;;;;;9.30;3.20;;;;;;;;;;10622880;27;20042;-83
2023/12/16 10:43:15;;;;;;;7.30;3.17;;;;;;;;;;10637916;28;20023;-81
2023/12/16 10:48:16;;;;;;;;;;;;;;;;;;10643236;28;20042;-81
2023/12/16 10:53:27;;;;;;;8.55;3.40;;;;;;;;;;10646874;28;19911;-80
2023/12/16 10:58:30;;;;;;;8.90;3.83;;;;;;;;;;10617888;28;20042;-80
2023/12/16 11:03:38;;;;;;;10.13;3.50;;;;;;;;;;10621453;28;20051;-81
2023/12/16 11:08:40;;;;;;;9.35;2.80;;;;;;;;;;10626603;28;20114;-82
2023/12/16 11:13:41;;;;;;;10.32;4.50;;;;;;;;;;10620209;28;20118;-80
2023/12/16 11:18:45;;;;;;;11.27;5.88;;;;;;;;;;10644354;28;20059;-80
2023/12/16 11:23:46;;;;;;;10.90;4.32;;;;;;;;;;10625490;28;20043;-82
2023/12/16 11:28:51;;;;;;;7.50;3.33;;;;;;;;;;10623669;27;20057;-82
2023/12/16 11:33:52;;;;;;;7.88;2.63;;;;;;;;;;10624908;27;20080;-81
2023/12/16 11:38:53;;;;;;;;;;;;;;;;;;10623266;27;20435;-81
2023/12/16 11:43:54;;;;;;;9.48;4.38;;;;;;;;;;10624066;27;19903;-82
2023/12/16 11:48:55;;;;;;;7.38;3.20;;;;;;;;;;10643258;27;20027;-80
2023/12/16 11:53:57;;;;;;;;;;;;;;;;;;10625848;27;20114;-79
2023/12/16 11:58:58;;;;;;;;;;;;;;;;;;10624675;27;19911;-80
2023/12/16 12:04:00;;;;;;;8.30;3.42;;;;;;;;;;10623210;27;20319;-81
2023/12/16 12:09:01;;;;;;;12.27;3.95;;;;;;;;;;10640747;27;20462;-79
2023/12/16 12:14:04;;;;;;;10.38;3.33;;;;;;;;;;10624931;27;20037;-82
2023/12/16 12:19:05;;;;;;;10.40;3.50;;;;;;;;;;10622484;27;20015;-79
2023/12/16 12:24:05;;;;;;;;;;;;;;;;;;10622649;27;20029;-79
2023/12/16 12:29:07;;;;;;;7.90;3.08;;;;;;;;;;10622022;27;19925;-80
2023/12/16 12:34:07;;;;;;;;;;;;;;;;;;10628643;27;20043;-79
2023/12/16 12:39:11;;;;;;;9.98;3.53;;;;;;;;;;10622558;27;20350;-81
2023/12/16 12:44:13;;;;;;;9.50;3.60;;;;;;;;;;10623948;27;20020;-79
2023/12/16 12:49:14;;;;;;;9.77;3.28;;;;;;;;;;10640778;27;20049;-80
2023/12/16 12:54:15;;;;;;;8.95;3.03;;;;;;;;;;10639229;27;20458;-81
2023/12/16 12:59:16;;;;;;;;;;;;;;;;;;10620782;27;20046;-82
2023/12/16 13:04:22;;;;;;;7.15;2.60;;;;;;;;;;10618132;27;19911;-84
2023/12/16 13:09:23;;;;;;;9.27;3.45;;;;;;;;;;10618876;27;20031;-81
2023/12/16 13:14:24;;;;;;;;;;;;;;;;;;10619933;27;20039;-81
2023/12/16 13:19:25;;;;;;;7.32;3.00;;;;;;;;;;10618885;27;19904;-81
2023/12/16 13:24:27;;;;;;;5.90;2.53;;;;;;;;;;10616611;27;20031;-81
2023/12/16 13:29:28;;;;;;;8.13;3.35;;;;;;;;;;10636783;27;20072;-81
2023/12/16 13:34:29;;;;;;;7.30;2.95;;;;;;;;;;10616378;27;20433;-81
2023/12/16 13:39:31;;;;;;;;;;;;;;;;;;10618551;27;20072;-82
2023/12/16 13:44:32;;;;;;;;;;;;;;;;;;10616309;27;19967;-80
2023/12/16 13:49:33;;;;;;;8.90;3.40;;;;;;;;;;10617283;27;19907;-83
2023/12/16 13:54:34;;;;;;;;;;;;;;;;;;10615716;27;20027;-81
2023/12/16 13:59:35;;;;;;;9.55;3.60;;;;;;;;;;10617049;27;19951;-81
2023/12/16 14:04:38;;;;;;;5.03;2.47;;;;;;;;;;10618384;27;20098;-81
2023/12/16 14:09:39;;;;;;;6.93;2.85;;;;;;;;;;10619573;27;20037;-80
2023/12/16 14:14:40;;;;;;;;;;;;;;;;;;10636844;27;20031;-81
2023/12/16 14:19:41;;;;;;;8.98;3.17;;;;;;;;;;10636071;27;19910;-80
2023/12/16 14:24:42;;;;;;;9.70;3.78;;;;;;;;;;10617858;27;20023;-81
2023/12/16 14:29:43;;;;;;;4.80;2.40;;;;;;;;;;10620097;27;20027;-82
2023/12/16 14:34:44;;;;;;;;;;;;;;;;;;10641297;27;20080;-81
2023/12/16 14:39:45;;;;;;;5.10;2.33;;;;;;;;;;10637485;27;19950;-80
2023/12/16 14:44:47;;;;;;;;;;;;;;;;;;10650274;28;20110;-82
2023/12/16 14:49:48;;;;;;;4.93;2.85;;;;;;;;;;10616053;28;19932;-81
2023/12/16 14:54:49;;;;;;;;;;;;;;;;;;10619963;28;20502;-82
2023/12/16 14:59:50;;;;;;;5.93;3.22;;;;;;;;;;10618625;28;19919;-83
2023/12/16 15:04:51;;;;;;;4.78;2.70;;;;;;;;;;10624351;27;20027;-82
2023/12/16 15:09:53;;;;;;;;;;;;;;;;;;10631483;27;20083;-83
2023/12/16 15:14:55;;;;;;;4.88;2.20;;;;;;;;;;10635697;27;19979;-83
2023/12/16 15:19:56;;;;;;;5.45;2.75;;;;;;;;;;10654555;27;20102;-84
2023/12/16 15:24:56;;;;;;;;;;;;;;;;;;10634171;27;20065;-83
2023/12/16 15:29:57;;;;;;;5.40;2.67;;;;;;;;;;10628861;27;20258;-83
2023/12/16 15:34:59;;;;;;;;;;;;;;;;;;10626867;27;20070;-83
2023/12/16 15:40:00;;;;;;;6.85;2.92;;;;;;;;;;10625229;27;19907;-82
2023/12/16 15:45:04;;;;;;;;;;;;;;;;;;10623179;27;20025;-83
2023/12/16 15:50:06;;;;;;;7.78;3.40;;;;;;;;;;10623378;27;19956;-81
2023/12/16 15:55:07;;;;;;;5.07;2.83;;;;;;;;;;10622392;27;20035;-82
2023/12/16 16:00:08;;;;;;;8.98;4.15;;;;;;;;;;10623001;27;20015;-80
2023/12/16 16:05:10;;;;;;;7.18;3.80;;;;;;;;;;10621961;27;20051;-81
2023/12/16 16:10:11;;;;;;;7.25;3.25;;;;;;;;;;10622698;27;20114;-80
2023/12/16 16:15:12;;;;;;;;;;;;;;;;;;10624396;27;20027;-81
2023/12/16 16:20:13;;;;;;;5.60;3.00;;;;;;;;;;10622550;27;19924;-81
2023/12/16 16:25:14;;;;;;;6.00;2.85;;;;;;;;;;10642084;27;20023;-81
2023/12/16 16:30:15;;;;;;;;;;;;;;;;;;10620761;27;20023;-80
2023/12/16 16:35:16;;;;;;;5.55;2.58;;;;;;;;;;10621278;27;19908;-80
2023/12/16 16:40:18;;;;;;;8.35;3.78;;;;;;;;;;10639407;27;20090;-81
2023/12/16 16:45:19;;;;;;;8.80;3.67;;;;;;;;;;10602891;27;20494;-82
2023/12/16 16:50:20;;;;;;;;;;;;;;;;;;10620775;27;20227;-81
2023/12/16 16:55:21;;;;;;;4.97;3.00;;;;;;;;;;10620896;27;19962;-80
2023/12/16 17:00:25;;;;;;;4.20;2.00;;;;;;;;;;10638533;27;20098;-79
2023/12/16 17:05:26;;;;;;;5.88;2.95;;;;;;;;;;10618128;27;20075;-80
2023/12/16 17:10:27;;;;;;;;;;;;;;;;;;10620321;27;20092;-80
2023/12/16 17:15:29;;;;;;;7.35;3.97;;;;;;;;;;10619223;27;19904;-80
2023/12/16 17:20:30;;;;;;;4.60;3.13;;;;;;;;;;10619105;27;20520;-80
2023/12/16 17:25:31;;;;;;;;;;;;;;;;;;10618537;27;20023;-80
2023/12/16 17:30:32;;;;;;;7.88;4.60;;;;;;;;;;10620400;27;20247;-80
2023/12/16 17:35:36;;;;;;;;;;;;;;;;;;10617961;27;20045;-80
2023/12/16 17:40:37;;;;;;;10.15;6.30;;;;;;;;;;10637763;27;19916;-80
2023/12/16 17:45:38;;;;;;;;;;;;;;;;;;10619053;27;20036;-82
2023/12/16 17:50:49;;;;;;;6.88;3.75;;;;;;;;;;10638027;27;19907;-86
2023/12/16 17:55:54;;;;;;;7.18;3.70;;;;;;;;;;10624415;27;20031;-87
2023/12/16 18:23:53;;;;;;;5.80;3.90;;;;;;;;;;10628822;27;20019;-87
2023/12/16 18:29:15;;;;;;;8.38;5.53;;;;;;;;;;10609848;27;20595;-87
2023/12/16 18:34:23;;;;;;;10.73;6.60;;;;;;;;;;10612170;27;20440;-87
2023/12/16 18:39:24;;;;;;;5.63;3.92;;;;;;;;;;10609628;27;20051;-85
2023/12/16 18:44:25;;;;;;;;;;;;;;;;;;10611171;28;20478;-86
2023/12/16 18:49:26;;;;;;;;;;;;;;;;;;10611172;28;20282;-85
2023/12/16 19:23:00;;;;;;;8.68;6.13;;;;;;;;;;10604108;27;20058;-88
2023/12/16 19:28:01;;;;;;;6.68;5.45;;;;;;;;;;10570544;28;20065;-88
2023/12/16 19:33:02;;;;;;;7.15;5.65;;;;;;;;;;10570696;28;20040;-88
2023/12/16 19:38:03;;;;;;;;;;;;;;;;;;10569574;28;20114;-88
2023/12/16 19:43:04;;;;;;;6.63;4.95;;;;;;;;;;10570901;28;20435;-88
2023/12/16 19:48:05;;;;;;;;;;;;;;;;;;10567197;28;20038;-88
2023/12/16 19:53:06;;;;;;;5.35;4.05;;;;;;;;;;10575500;28;20373;-88
2023/12/16 19:58:07;;;;;;;;;;;;;;;;;;10576587;28;20049;-87
2023/12/16 20:03:08;;;;;;;5.78;4.80;;;;;;;;;;10574215;28;19904;-89
2023/12/16 20:08:09;;;;;;;;;;;;;;;;;;10574433;28;20070;-88
